createdAt,value
2018-05-15T00:00:45.699Z,100251.63
2018-05-15T00:03:14.736Z,100251.41
2018-05-15T00:05:43.078Z,100256.80
2018-05-15T00:08:12.228Z,100253.85
2018-05-15T00:10:40.677Z,100255.59
2018-05-15T00:13:09.008Z,100260.42
2018-05-15T00:15:37.334Z,100252.73
2018-05-15T00:18:05.670Z,100255.59
2018-05-15T00:20:34.743Z,100249.27
2018-05-15T00:23:03.084Z,100252.66
2018-05-15T00:25:31.532Z,100251.88
2018-05-15T00:28:00.632Z,100249.59
2018-05-15T00:30:29.675Z,100251.17
2018-05-15T00:32:57.965Z,100251.51
2018-05-15T00:35:26.288Z,100252.06
2018-05-15T00:37:54.712Z,100253.93
2018-05-15T00:40:23.004Z,100256.17
2018-05-15T00:42:51.341Z,100254.84
2018-05-15T00:45:19.658Z,100261.30
2018-05-15T00:47:47.972Z,100255.59
2018-05-15T00:50:17.064Z,100259.97
2018-05-15T00:52:45.370Z,100254.76
2018-05-15T00:55:31.362Z,100260.11
2018-05-15T00:57:59.643Z,100252.01
2018-05-15T01:00:27.941Z,100253.03
2018-05-15T01:02:56.232Z,100253.15
2018-05-15T01:05:24.559Z,100261.15
2018-05-15T01:07:53.631Z,100266.92
2018-05-15T01:12:57.212Z,100262.78
2018-05-15T01:15:25.493Z,100265.66
2018-05-15T01:17:53.802Z,100259.84
2018-05-15T01:20:22.887Z,100262.14
2018-05-15T01:22:51.178Z,100267.59
2018-05-15T01:25:19.497Z,100266.61
2018-05-15T01:27:47.800Z,100266.82
2018-05-15T01:30:16.091Z,100265.40
2018-05-15T01:32:44.411Z,100267.99
2018-05-15T01:35:12.728Z,100269.78
2018-05-15T01:37:41.073Z,100277.20
2018-05-15T01:40:09.361Z,100276.48
2018-05-15T01:42:37.679Z,100284.02
2018-05-15T01:45:05.999Z,100282.56
2018-05-15T01:47:34.311Z,100280.73
2018-05-15T01:50:02.677Z,100287.97
2018-05-15T01:52:30.974Z,100282.27
2018-05-15T01:54:59.263Z,100274.06
2018-05-15T01:57:27.821Z,100273.34
2018-05-15T01:59:56.117Z,100278.80
2018-05-15T02:02:24.379Z,100274.22
2018-05-15T02:04:52.728Z,100272.77
2018-05-15T02:07:21.780Z,100272.28
2018-05-15T02:09:50.076Z,100277.52
2018-05-15T02:12:18.358Z,100276.25
2018-05-15T02:14:47.414Z,100279.51
2018-05-15T02:17:15.730Z,100281.14
2018-05-15T02:19:44.763Z,100281.02
2018-05-15T02:22:13.073Z,100282.73
2018-05-15T02:24:41.395Z,100276.69
2018-05-15T02:27:10.437Z,100282.20
2018-05-15T02:29:38.743Z,100278.88
2018-05-15T02:32:07.296Z,100280.91
2018-05-15T02:34:35.634Z,100284.47
2018-05-15T02:37:04.698Z,100284.98
2018-05-15T02:39:33.000Z,100288.18
2018-05-15T02:42:02.073Z,100279.48
2018-05-15T02:44:30.361Z,100277.25
2018-05-15T02:46:59.564Z,100279.28
2018-05-15T02:49:28.620Z,100273.81
2018-05-15T02:51:56.930Z,100274.70
2018-05-15T02:54:26.005Z,100281.23
2018-05-15T02:56:54.281Z,100276.81
2018-05-15T02:59:22.633Z,100274.09
2018-05-15T03:01:50.943Z,100282.81
2018-05-15T03:04:19.337Z,100274.63
2018-05-15T03:06:48.391Z,100283.56
2018-05-15T03:09:17.487Z,100277.52
2018-05-15T03:11:45.804Z,100273.17
2018-05-15T03:14:14.096Z,100273.42
2018-05-15T03:16:43.162Z,100276.07
2018-05-15T03:19:11.511Z,100281.45
2018-05-15T03:21:39.789Z,100284.20
2018-05-15T03:24:08.102Z,100293.23
2018-05-15T03:26:36.403Z,100291.18
2018-05-15T03:29:05.473Z,100294.37
2018-05-15T03:31:33.760Z,100296.70
2018-05-15T03:34:02.816Z,100298.16
2018-05-15T03:36:31.109Z,100303.38
2018-05-15T03:38:59.381Z,100304.31
2018-05-15T03:41:28.482Z,100305.13
2018-05-15T03:43:56.752Z,100309.71
2018-05-15T03:46:25.075Z,100304.39
2018-05-15T03:48:54.138Z,100304.72
2018-05-15T03:51:22.438Z,100301.28
2018-05-15T03:53:51.515Z,100301.41
2018-05-15T03:56:19.793Z,100299.98
2018-05-15T03:58:48.105Z,100308.09
2018-05-15T04:01:34.199Z,100308.73
2018-05-15T04:04:20.288Z,100311.30
2018-05-15T04:07:06.242Z,100315.09
2018-05-15T04:09:34.530Z,100312.32
2018-05-15T04:12:03.097Z,100317.69
2018-05-15T04:14:31.355Z,100309.13
2018-05-15T04:16:59.708Z,100309.16
2018-05-15T04:19:28.013Z,100310.78
2018-05-15T04:21:56.338Z,100314.95
2018-05-15T04:24:25.458Z,100321.88
2018-05-15T04:26:53.698Z,100325.77
2018-05-15T04:29:21.999Z,100320.44
2018-05-15T04:31:51.045Z,100328.63
2018-05-15T04:34:19.294Z,100327.69
2018-05-15T04:36:47.652Z,100320.82
2018-05-15T04:39:16.706Z,100327.34
2018-05-15T04:41:45.066Z,100330.19
2018-05-15T04:44:13.349Z,100327.19
2018-05-15T04:46:41.677Z,100325.55
2018-05-15T04:49:10.754Z,100321.63
2018-05-15T04:51:39.177Z,100323.71
2018-05-15T04:54:07.496Z,100337.56
2018-05-15T04:56:35.809Z,100339.64
2018-05-15T04:59:04.865Z,100336.47
2018-05-15T05:01:33.152Z,100333.97
2018-05-15T05:04:01.480Z,100337.62
2018-05-15T05:06:29.778Z,100340.62
2018-05-15T05:08:58.044Z,100336.06
2018-05-15T05:11:26.350Z,100344.36
2018-05-15T05:13:54.640Z,100352.56
2018-05-15T05:16:22.958Z,100355.50
2018-05-15T05:18:51.261Z,100365.87
2018-05-15T05:21:19.515Z,100361.27
2018-05-15T05:23:47.841Z,100361.95
2018-05-15T05:26:16.127Z,100366.44
2018-05-15T05:28:44.438Z,100361.64
2018-05-15T05:31:13.509Z,100367.79
2018-05-15T05:33:41.784Z,100364.22
2018-05-15T05:36:10.075Z,100371.77
2018-05-15T05:38:39.166Z,100373.58
2018-05-15T05:41:08.246Z,100368.33
2018-05-15T05:43:36.557Z,100368.81
2018-05-15T05:46:04.875Z,100380.65
2018-05-15T05:48:33.182Z,100388.34
2018-05-15T05:51:01.526Z,100388.68
2018-05-15T05:53:29.828Z,100394.94
2018-05-15T05:55:58.141Z,100396.14
2018-05-15T05:58:27.208Z,100400.10
2018-05-15T06:00:55.497Z,100393.08
2018-05-15T06:03:24.562Z,100394.44
2018-05-15T06:05:52.856Z,100403.53
2018-05-15T06:08:21.161Z,100389.98
2018-05-15T06:10:50.211Z,100392.83
2018-05-15T06:13:18.506Z,100398.38
2018-05-15T06:15:46.875Z,100399.20
2018-05-15T06:18:15.188Z,100402.51
2018-05-15T06:20:44.321Z,100403.16
2018-05-15T06:23:12.598Z,100403.12
2018-05-15T06:25:40.914Z,100413.72
2018-05-15T06:28:09.528Z,100410.69
2018-05-15T06:30:38.588Z,100411.70
2018-05-15T06:33:06.873Z,100404.66
2018-05-15T06:35:35.301Z,100410.79
2018-05-15T06:38:03.612Z,100408.48
2018-05-15T06:40:31.924Z,100408.83
2018-05-15T06:43:00.989Z,100414.13
2018-05-15T06:45:29.280Z,100410.21
2018-05-15T06:47:57.684Z,100406.60
2018-05-15T06:50:26.749Z,100411.73
2018-05-15T06:52:55.110Z,100408.97
2018-05-15T06:55:23.402Z,100414.34
2018-05-15T06:57:51.681Z,100410.06
2018-05-15T07:00:19.998Z,100421.77
2018-05-15T07:02:49.247Z,100417.30
2018-05-15T07:05:17.573Z,100417.69
2018-05-15T07:07:46.697Z,100411.04
2018-05-15T07:10:15.795Z,100416.22
2018-05-15T07:12:44.107Z,100409.94
2018-05-15T07:15:12.425Z,100410.45
2018-05-15T07:17:41.476Z,100409.48
2018-05-15T07:20:09.781Z,100406.31
2018-05-15T07:22:38.832Z,100405.55
2018-05-15T07:25:07.921Z,100407.88
2018-05-15T07:27:36.242Z,100411.06
2018-05-15T07:30:04.552Z,100410.77
2018-05-15T07:32:32.904Z,100417.40
2018-05-15T07:35:01.334Z,100415.22
2018-05-15T07:37:29.728Z,100414.69
2018-05-15T07:40:00.736Z,100411.26
2018-05-15T07:42:29.020Z,100407.92
2018-05-15T07:44:57.357Z,100409.11
2018-05-15T07:47:25.641Z,100407.42
2018-05-15T07:49:54.754Z,100408.39
2018-05-15T07:52:23.787Z,100416.94
2018-05-15T07:54:52.081Z,100406.55
2018-05-15T07:57:20.404Z,100411.02
2018-05-15T07:59:49.488Z,100414.33
2018-05-15T08:02:18.559Z,100409.19
2018-05-15T08:04:46.925Z,100410.77
2018-05-15T08:07:15.236Z,100419.97
2018-05-15T08:09:44.339Z,100419.86
2018-05-15T08:12:13.455Z,100420.30
2018-05-15T08:14:41.763Z,100420.66
2018-05-15T08:17:10.079Z,100422.88
2018-05-15T08:19:39.136Z,100420.92
2018-05-15T08:22:07.422Z,100420.01
2018-05-15T08:24:35.749Z,100421.42
2018-05-15T08:27:04.818Z,100422.08
2018-05-15T08:29:33.101Z,100417.81
2018-05-15T08:32:02.172Z,100421.64
2018-05-15T08:34:30.456Z,100420.30
2018-05-15T08:36:58.771Z,100425.66
2018-05-15T08:39:27.067Z,100422.70
2018-05-15T08:41:55.391Z,100422.25
2018-05-15T08:44:23.700Z,100434.50
2018-05-15T08:46:52.759Z,100428.67
2018-05-15T08:49:21.068Z,100443.00
2018-05-15T08:51:50.129Z,100434.88
2018-05-15T08:54:18.405Z,100430.27
2018-05-15T08:56:46.694Z,100432.59
2018-05-15T08:59:15.020Z,100434.61
2018-05-15T09:01:43.336Z,100433.63
2018-05-15T09:04:11.673Z,100430.25
2018-05-15T09:06:39.953Z,100436.20
2018-05-15T09:09:08.275Z,100429.23
2018-05-15T09:11:36.593Z,100439.27
2018-05-15T09:14:05.020Z,100440.04
2018-05-15T09:16:33.357Z,100446.73
2018-05-15T09:19:01.733Z,100443.61
2018-05-15T09:21:30.800Z,100444.11
2018-05-15T09:23:59.218Z,100437.08
2018-05-15T09:26:27.616Z,100439.89
2018-05-15T09:28:55.931Z,100444.20
2018-05-15T09:31:24.193Z,100437.09
2018-05-15T09:33:52.493Z,100432.70
2018-05-15T09:36:20.837Z,100444.71
2018-05-15T09:38:49.121Z,100433.74
2018-05-15T09:41:17.404Z,100437.83
2018-05-15T09:44:00.516Z,100429.84
2018-05-15T09:46:28.802Z,100435.88
2018-05-15T09:48:57.123Z,100437.70
2018-05-15T09:51:25.425Z,100426.28
2018-05-15T09:53:53.749Z,100432.80
2018-05-15T09:56:22.064Z,100420.79
2018-05-15T09:58:51.117Z,100418.05
2018-05-15T10:01:19.435Z,100429.27
2018-05-15T10:03:48.496Z,100422.14
2018-05-15T10:06:16.808Z,100415.49
2018-05-15T10:08:45.864Z,100416.31
2018-05-15T10:11:14.949Z,100428.16
2018-05-15T10:13:43.198Z,100416.25
2018-05-15T10:16:11.817Z,100413.27
2018-05-15T10:18:40.136Z,100412.27
2018-05-15T10:21:09.448Z,100410.75
2018-05-15T10:23:37.779Z,100428.02
2018-05-15T10:26:06.100Z,100412.31
2018-05-15T10:28:34.433Z,100412.09
2018-05-15T10:31:02.747Z,100398.97
2018-05-15T10:33:31.836Z,100396.48
2018-05-15T10:36:00.902Z,100404.86
2018-05-15T10:38:29.300Z,100391.73
2018-05-15T10:40:57.607Z,100393.59
2018-05-15T10:43:25.917Z,100398.95
2018-05-15T10:45:54.199Z,100393.48
2018-05-15T10:48:22.540Z,100401.59
2018-05-15T10:50:51.611Z,100394.80
2018-05-15T10:53:19.906Z,100385.77
2018-05-15T10:55:48.966Z,100389.59
2018-05-15T10:58:17.256Z,100386.80
2018-05-15T11:00:46.304Z,100401.91
2018-05-15T11:03:14.714Z,100405.94
2018-05-15T11:05:43.049Z,100390.50
2018-05-15T11:08:11.360Z,100381.52
2018-05-15T11:10:39.643Z,100383.33
2018-05-15T11:13:07.959Z,100377.97
2018-05-15T11:15:37.010Z,100383.04
2018-05-15T11:18:23.064Z,100381.39
2018-05-15T11:21:09.099Z,100377.92
2018-05-15T11:23:55.214Z,100368.11
2018-05-15T11:26:23.502Z,100375.53
2018-05-15T11:28:51.807Z,100373.86
2018-05-15T11:31:20.134Z,100369.52
2018-05-15T11:33:48.488Z,100371.83
2018-05-15T11:36:17.096Z,100362.78
2018-05-15T11:38:45.401Z,100362.55
2018-05-15T11:41:14.451Z,100353.67
2018-05-15T11:43:43.496Z,100365.44
2018-05-15T11:46:12.569Z,100362.52
2018-05-15T11:48:41.599Z,100359.97
2018-05-15T11:51:09.860Z,100350.44
2018-05-15T11:53:37.493Z,100338.14
2018-05-15T11:56:05.789Z,100335.53
2018-05-15T11:58:34.840Z,100346.33
2018-05-15T12:01:03.183Z,100343.82
2018-05-15T12:03:32.219Z,100341.50
2018-05-15T12:06:00.517Z,100337.94
2018-05-15T12:08:28.843Z,100334.95
2018-05-15T12:10:57.900Z,100336.83
2018-05-15T12:13:26.240Z,100339.28
2018-05-15T12:15:54.603Z,100333.58
2018-05-15T12:18:22.993Z,100327.91
2018-05-15T12:20:51.254Z,100329.81
2018-05-15T12:23:19.759Z,100325.03
2018-05-15T12:25:48.093Z,100330.03
2018-05-15T12:28:17.326Z,100326.29
2018-05-15T12:30:45.630Z,100334.34
2018-05-15T12:33:13.957Z,100333.26
2018-05-15T12:35:43.112Z,100322.45
2018-05-15T12:38:11.433Z,100323.62
2018-05-15T12:40:40.481Z,100328.59
2018-05-15T12:43:08.798Z,100329.94
2018-05-15T12:45:37.906Z,100323.41
2018-05-15T12:48:06.237Z,100326.94
2018-05-15T12:50:34.505Z,100318.27
2018-05-15T12:53:02.858Z,100316.78
2018-05-15T12:55:31.162Z,100309.15
2018-05-15T12:57:59.456Z,100312.17
2018-05-15T13:00:27.738Z,100306.03
2018-05-15T13:02:56.063Z,100305.33
2018-05-15T13:05:24.694Z,100309.80
2018-05-15T13:07:53.004Z,100301.30
2018-05-15T13:10:22.060Z,100291.25
2018-05-15T13:12:50.410Z,100300.66
2018-05-15T13:15:18.696Z,100286.55
2018-05-15T13:17:46.986Z,100291.98
2018-05-15T13:20:15.584Z,100296.46
2018-05-15T13:22:43.873Z,100283.18
2018-05-15T13:25:12.202Z,100284.75
2018-05-15T13:27:40.472Z,100279.81
2018-05-15T13:30:08.776Z,100282.77
2018-05-15T13:32:37.934Z,100280.45
2018-05-15T13:35:06.253Z,100277.37
2018-05-15T13:37:34.572Z,100269.67
2018-05-15T13:40:03.735Z,100279.62
2018-05-15T13:42:32.042Z,100269.61
2018-05-15T13:45:01.112Z,100258.83
2018-05-15T13:47:29.407Z,100266.64
2018-05-15T13:49:57.708Z,100276.22
2018-05-15T13:52:26.086Z,100272.58
2018-05-15T13:54:55.144Z,100271.14
2018-05-15T13:57:23.491Z,100263.30
2018-05-15T13:59:51.794Z,100263.05
2018-05-15T14:02:20.130Z,100272.95
2018-05-15T14:04:48.441Z,100255.73
2018-05-15T14:07:16.750Z,100261.81
2018-05-15T14:09:45.255Z,100256.31
2018-05-15T14:12:14.302Z,100264.61
2018-05-15T14:14:42.582Z,100260.41
2018-05-15T14:17:10.888Z,100250.81
2018-05-15T14:19:39.964Z,100244.45
2018-05-15T14:22:08.298Z,100245.67
2018-05-15T14:24:36.648Z,100239.69
2018-05-15T14:27:04.931Z,100262.59
2018-05-15T14:29:33.984Z,100242.96
2018-05-15T14:32:02.292Z,100240.72
2018-05-15T14:34:31.826Z,100240.66
2018-05-15T14:37:00.100Z,100231.72
2018-05-15T14:39:28.391Z,100226.55
2018-05-15T14:42:14.604Z,100223.83
2018-05-15T14:44:42.890Z,100222.63
2018-05-15T14:47:11.326Z,100221.91
2018-05-15T14:49:39.632Z,100214.80
2018-05-15T14:52:07.904Z,100214.25
2018-05-15T14:54:36.242Z,100202.42
2018-05-15T14:57:05.326Z,100204.41
2018-05-15T14:59:33.901Z,100207.80
2018-05-15T15:02:02.177Z,100203.73
2018-05-15T15:04:30.479Z,100198.48
2018-05-15T15:06:59.512Z,100201.42
2018-05-15T15:09:27.864Z,100205.45
2018-05-15T15:11:56.173Z,100210.13
2018-05-15T15:14:24.475Z,100194.38
2018-05-15T15:16:52.835Z,100205.14
2018-05-15T15:19:21.125Z,100197.89
2018-05-15T15:21:49.453Z,100198.23
2018-05-15T15:24:17.768Z,100197.48
2018-05-15T15:26:46.090Z,100189.44
2018-05-15T15:29:15.183Z,100190.83
2018-05-15T15:31:43.531Z,100181.53
2018-05-15T15:34:11.868Z,100178.21
2018-05-15T15:36:40.172Z,100184.65
2018-05-15T15:39:08.520Z,100181.23
2018-05-15T15:41:37.037Z,100178.60
2018-05-15T15:44:05.341Z,100182.58
2018-05-15T15:46:33.671Z,100175.14
2018-05-15T15:49:02.041Z,100166.80
2018-05-15T15:51:30.387Z,100171.70
2018-05-15T15:53:58.756Z,100159.67
2018-05-15T15:56:27.057Z,100162.03
2018-05-15T15:58:56.154Z,100161.75
2018-05-15T16:01:25.217Z,100152.75
2018-05-15T16:03:53.544Z,100155.09
2018-05-15T16:06:21.907Z,100136.28
2018-05-15T16:08:50.112Z,100144.86
2018-05-15T16:11:18.401Z,100139.00
2018-05-15T16:13:46.695Z,100149.22
2018-05-15T16:16:15.009Z,100137.68
2018-05-15T16:18:44.140Z,100140.33
2018-05-15T16:21:12.484Z,100139.81
2018-05-15T16:23:41.809Z,100139.13
2018-05-15T16:26:10.125Z,100135.24
2018-05-15T16:28:38.547Z,100141.38
2018-05-15T16:31:06.991Z,100136.10
2018-05-15T16:33:35.310Z,100127.02
2018-05-15T16:36:04.405Z,100133.47
2018-05-15T16:38:33.523Z,100128.05
2018-05-15T16:41:01.833Z,100131.52
2018-05-15T16:43:30.159Z,100130.59
2018-05-15T16:45:58.422Z,100132.55
2018-05-15T16:48:26.734Z,100131.61
2018-05-15T16:50:55.076Z,100130.46
2018-05-15T16:53:23.380Z,100131.62
2018-05-15T16:55:51.706Z,100127.78
2018-05-15T16:58:20.079Z,100125.00
2018-05-15T17:00:48.372Z,100126.42
2018-05-15T17:03:16.658Z,100126.18
2018-05-15T17:05:44.970Z,100127.90
2018-05-15T17:08:13.329Z,100136.77
2018-05-15T17:10:41.622Z,100130.62
2018-05-15T17:13:10.742Z,100130.53
2018-05-15T17:15:38.999Z,100136.98
2018-05-15T17:18:07.297Z,100129.32
2018-05-15T17:20:35.620Z,100124.45
2018-05-15T17:23:04.696Z,100128.59
2018-05-15T17:25:33.038Z,100120.78
2018-05-15T17:28:02.083Z,100126.52
2018-05-15T17:30:30.404Z,100124.12
2018-05-15T17:32:58.769Z,100121.66
2018-05-15T17:35:27.056Z,100114.39
2018-05-15T17:37:55.389Z,100118.22
2018-05-15T17:40:23.685Z,100120.44
2018-05-15T17:42:52.782Z,100115.13
2018-05-15T17:45:21.119Z,100114.85
2018-05-15T17:47:49.461Z,100120.82
2018-05-15T17:50:17.795Z,100118.18
2018-05-15T17:52:46.404Z,100119.13
2018-05-15T17:55:15.475Z,100122.09
2018-05-15T17:57:43.771Z,100117.59
2018-05-15T18:00:12.097Z,100118.70
2018-05-15T18:02:40.421Z,100116.80
2018-05-15T18:05:08.724Z,100119.73
2018-05-15T18:07:37.785Z,100112.02
2018-05-15T18:10:06.085Z,100113.60
2018-05-15T18:12:35.166Z,100116.48
2018-05-15T18:15:03.500Z,100111.44
2018-05-15T18:17:31.785Z,100107.23
2018-05-15T18:20:00.094Z,100110.27
2018-05-15T18:22:28.404Z,100105.45
2018-05-15T18:24:56.745Z,100112.80
2018-05-15T18:27:25.044Z,100115.61
2018-05-15T18:29:53.364Z,100111.06
2018-05-15T18:32:21.683Z,100108.50
2018-05-15T18:34:50.221Z,100106.41
2018-05-15T18:37:18.640Z,100105.11
2018-05-15T18:39:46.961Z,100107.96
2018-05-15T18:42:16.099Z,100101.50
2018-05-15T18:44:44.438Z,100100.73
2018-05-15T18:47:13.545Z,100102.39
2018-05-15T18:49:41.925Z,100105.45
2018-05-15T18:52:10.207Z,100105.50
2018-05-15T18:54:38.501Z,100104.45
2018-05-15T18:57:06.817Z,100102.86
2018-05-15T18:59:35.145Z,100099.81
2018-05-15T19:02:03.452Z,100102.92
2018-05-15T19:04:32.522Z,100109.41
2018-05-15T19:07:00.838Z,100108.31
2018-05-15T19:09:29.112Z,100111.49
2018-05-15T19:11:57.442Z,100116.79
2018-05-15T19:14:25.767Z,100116.53
2018-05-15T19:16:54.373Z,100114.67
2018-05-15T19:19:23.639Z,100117.66
2018-05-15T19:21:52.660Z,100122.16
2018-05-15T19:24:21.024Z,100126.94
2018-05-15T19:26:49.468Z,100125.07
2018-05-15T19:29:17.986Z,100122.14
2018-05-15T19:31:56.307Z,100129.45
2018-05-15T19:34:25.390Z,100130.36
2018-05-15T19:36:59.195Z,100132.44
2018-05-15T19:39:33.526Z,100134.99
2018-05-15T19:42:01.858Z,100134.84
2018-05-15T19:44:30.344Z,100135.63
2018-05-15T19:46:58.820Z,100133.03
2018-05-15T19:49:27.251Z,100141.00
2018-05-15T19:51:55.651Z,100154.66
2018-05-15T19:54:24.034Z,100173.29
2018-05-15T19:56:52.453Z,100177.13
2018-05-15T19:59:20.838Z,100183.96
2018-05-15T20:01:49.333Z,100193.67
2018-05-15T20:04:18.384Z,100200.14
2018-05-15T20:06:46.733Z,100194.32
2018-05-15T20:09:15.030Z,100200.00
2018-05-15T20:11:43.368Z,100190.15
2018-05-15T20:14:11.737Z,100189.98
2018-05-15T20:16:40.120Z,100195.00
2018-05-15T20:19:08.448Z,100200.80
2018-05-15T20:21:37.531Z,100194.59
2018-05-15T20:24:06.591Z,100193.75
2018-05-15T20:26:34.914Z,100186.98
2018-05-15T20:29:03.428Z,100187.38
2018-05-15T20:31:31.667Z,100191.70
2018-05-15T20:34:00.724Z,100185.75
2018-05-15T20:36:29.077Z,100192.63
2018-05-15T20:38:57.360Z,100191.02
2018-05-15T20:41:25.657Z,100192.34
2018-05-15T20:43:54.011Z,100193.44
2018-05-15T20:46:22.363Z,100183.85
2018-05-15T20:48:50.703Z,100191.38
2018-05-15T20:51:19.000Z,100187.62
2018-05-15T20:53:48.116Z,100191.24
2018-05-15T20:56:16.432Z,100187.09
2018-05-15T20:58:44.762Z,100188.44
2018-05-15T21:01:13.813Z,100190.73
2018-05-15T21:03:43.105Z,100185.61
2018-05-15T21:06:12.195Z,100192.87
2018-05-15T21:08:40.530Z,100178.87
2018-05-15T21:11:09.638Z,100189.48
2018-05-15T21:13:38.676Z,100189.48
2018-05-15T21:16:07.003Z,100189.36
2018-05-15T21:18:36.165Z,100191.41
2018-05-15T21:21:04.927Z,100197.58
2018-05-15T21:23:33.240Z,100196.36
2018-05-15T21:26:01.598Z,100199.06
2018-05-15T21:28:29.969Z,100200.09
2018-05-15T21:30:58.302Z,100203.03
2018-05-15T21:33:27.389Z,100202.48
2018-05-15T21:35:56.452Z,100195.45
2018-05-15T21:38:24.736Z,100196.08
2018-05-15T21:40:53.047Z,100201.02
2018-05-15T21:43:22.097Z,100193.05
2018-05-15T21:45:50.463Z,100206.45
2018-05-15T21:48:18.746Z,100197.84
2018-05-15T21:50:47.045Z,100196.91
2018-05-15T21:53:15.343Z,100202.36
2018-05-15T21:55:44.425Z,100217.73
2018-05-15T21:58:12.727Z,100223.92
2018-05-15T22:00:41.797Z,100230.44
2018-05-15T22:03:10.132Z,100230.95
2018-05-15T22:05:38.453Z,100231.00
2018-05-15T22:08:06.802Z,100234.69
2018-05-15T22:10:35.136Z,100236.56
2018-05-15T22:13:21.959Z,100242.27
2018-05-15T22:16:07.899Z,100249.31
2018-05-15T22:18:54.734Z,100252.28
2018-05-15T22:21:40.767Z,100259.98
2018-05-15T22:24:09.072Z,100253.48
2018-05-15T22:26:37.522Z,100246.55
2018-05-15T22:29:05.740Z,100249.97
2018-05-15T22:31:34.040Z,100243.59
2018-05-15T22:34:03.220Z,100237.88
2018-05-15T22:36:31.519Z,100250.08
2018-05-15T22:39:00.580Z,100253.92
2018-05-15T22:41:29.088Z,100266.53
2018-05-15T22:43:57.408Z,100255.02
2018-05-15T22:46:25.710Z,100251.45
2018-05-15T22:48:54.076Z,100258.19
2018-05-15T22:51:22.380Z,100257.34
2018-05-15T22:53:50.680Z,100255.19
2018-05-15T22:56:18.995Z,100253.41
2018-05-15T22:58:47.286Z,100252.81
2018-05-15T23:01:15.714Z,100255.73
2018-05-15T23:03:44.010Z,100249.88
2018-05-15T23:06:13.058Z,100258.34
2018-05-15T23:08:41.374Z,100263.44
2018-05-15T23:11:10.503Z,100262.53
2018-05-15T23:13:38.811Z,100265.27
2018-05-15T23:16:07.178Z,100263.89
2018-05-15T23:18:35.452Z,100261.22
2018-05-15T23:21:03.761Z,100253.02
2018-05-15T23:23:32.093Z,100253.89
2018-05-15T23:26:00.388Z,100251.22
2018-05-15T23:28:28.709Z,100241.80
2018-05-15T23:30:57.000Z,100238.66
2018-05-15T23:33:26.057Z,100231.41
2018-05-15T23:35:54.335Z,100231.59
2018-05-15T23:38:22.595Z,100227.03
2018-05-15T23:40:50.914Z,100213.25
2018-05-15T23:43:19.957Z,100208.42
2018-05-15T23:45:48.250Z,100218.33
2018-05-15T23:48:16.524Z,100216.09
2018-05-15T23:50:44.817Z,100205.70
2018-05-15T23:53:13.111Z,100205.52
2018-05-15T23:55:42.153Z,100198.30
2018-05-15T23:58:10.436Z,100198.90
